Time;durP1;ratioP1;P1;durP2;ratioP2;P2;SDS_P1;SDS_P2;PMS_P1;PMS_P2;Temp;Humidity;BMP_temperature;BMP_pressure;BME280_temperature;BME280_humidity;BME280_pressure;Samples;Min_cycle;Max_cycle;Signal;HPM_P1;HPM_P2
2024/01/24 00:01:29;;;;;;;15.88;4.25;;;10.90;99.90;;;;;;5044431;28;20039;-89
2024/01/24 00:03:55;;;;;;;14.05;3.25;;;10.90;99.90;;;;;;5019795;28;20033;-88
2024/01/24 00:06:20;;;;;;;13.50;3.20;;;10.90;99.90;;;;;;5025518;28;20093;-89
2024/01/24 00:08:48;;;;;;;13.45;3.85;;;11.00;99.90;;;;;;5023075;28;20033;-89
2024/01/24 00:11:16;;;;;;;11.93;3.40;;;11.00;99.90;;;;;;5040091;28;20043;-89
2024/01/24 00:13:42;;;;;;;16.10;3.72;;;11.00;99.90;;;;;;5015670;28;20588;-89
2024/01/24 00:16:08;;;;;;;16.15;3.40;;;11.00;99.90;;;;;;5024148;28;20041;-90
2024/01/24 00:18:34;;;;;;;17.00;3.78;;;11.00;99.90;;;;;;5022744;28;20033;-88
2024/01/24 00:21:00;;;;;;;18.00;4.82;;;11.00;99.90;;;;;;4995608;28;20038;-88
2024/01/24 00:23:25;;;;;;;14.00;3.63;;;10.90;99.90;;;;;;5013948;28;20753;-90
2024/01/24 00:25:51;;;;;;;16.95;3.60;;;11.00;99.90;;;;;;5005498;28;20388;-90
2024/01/24 00:28:21;;;;;;;15.63;3.75;;;11.00;99.90;;;;;;4996364;28;20042;-89
2024/01/24 00:30:47;;;;;;;15.48;3.33;;;11.00;99.90;;;;;;5025623;28;20048;-89
2024/01/24 00:33:15;;;;;;;16.40;3.65;;;11.00;99.90;;;;;;4995725;28;20038;-88
2024/01/24 00:35:40;;;;;;;19.75;3.88;;;11.10;99.90;;;;;;5026339;28;20038;-89
2024/01/24 00:38:06;;;;;;;18.45;3.95;;;11.00;99.90;;;;;;5008821;28;20043;-90
2024/01/24 00:40:32;;;;;;;15.00;4.38;;;10.90;99.90;;;;;;5008388;28;20111;-90
2024/01/24 00:42:58;;;;;;;18.92;4.32;;;11.00;99.90;;;;;;4997405;28;20084;-90
2024/01/24 00:45:23;;;;;;;18.48;4.07;;;11.00;99.90;;;;;;5013475;28;20108;-91
2024/01/24 00:47:49;;;;;;;16.50;2.80;;;11.00;99.90;;;;;;5030840;28;20178;-90
2024/01/24 00:50:15;;;;;;;16.23;3.67;;;11.00;99.90;;;;;;5024990;28;20044;-90
2024/01/24 00:52:43;;;;;;;22.30;4.07;;;11.00;99.90;;;;;;5009951;28;20072;-90
2024/01/24 00:55:10;;;;;;;12.80;3.38;;;11.00;99.90;;;;;;4996001;28;20117;-92
2024/01/24 00:57:36;;;;;;;14.23;3.33;;;11.00;99.90;;;;;;4999960;28;20038;-91
2024/01/24 01:00:05;;;;;;;16.60;2.80;;;11.00;99.90;;;;;;4988988;28;20038;-91
2024/01/24 01:02:32;;;;;;;16.80;3.75;;;10.90;99.90;;;;;;4988945;28;20238;-90
2024/01/24 01:04:57;;;;;;;21.00;3.65;;;10.90;99.90;;;;;;5024887;28;20274;-90
2024/01/24 01:07:24;;;;;;;17.73;3.25;;;11.60;99.90;;;;;;5003508;28;20117;-90
2024/01/24 01:09:50;;;;;;;17.13;3.45;;;11.00;99.90;;;;;;5006802;28;20029;-91
2024/01/24 01:12:17;;;;;;;16.13;3.00;;;10.80;99.90;;;;;;5008163;28;20037;-89
2024/01/24 01:14:43;;;;;;;12.63;2.53;;;10.90;99.90;;;;;;5013443;28;20039;-90
2024/01/24 01:17:08;;;;;;;17.08;2.92;;;10.80;99.90;;;;;;5024626;28;20034;-92
2024/01/24 01:19:34;;;;;;;14.57;2.80;;;10.80;99.90;;;;;;5014087;28;20045;-90
2024/01/24 01:22:03;;;;;;;16.25;3.00;;;10.80;99.90;;;;;;5024204;28;20037;-90
2024/01/24 01:24:30;;;;;;;13.95;2.92;;;10.70;99.90;;;;;;5027339;28;20038;-91
2024/01/24 01:26:56;;;;;;;17.85;2.88;;;10.20;99.90;;;;;;5016308;28;20099;-90
2024/01/24 01:29:22;;;;;;;12.70;3.22;;;10.90;99.90;;;;;;5016441;28;20440;-90
2024/01/24 01:31:47;;;;;;;16.27;3.17;;;10.90;99.90;;;;;;4990536;28;20033;-91
2024/01/24 01:34:13;;;;;;;11.32;2.33;;;10.90;99.90;;;;;;5003061;28;20038;-91
2024/01/24 01:36:39;;;;;;;13.60;2.45;;;11.00;99.90;;;;;;5023749;28;20037;-92
2024/01/24 01:39:04;;;;;;;10.02;2.30;;;10.90;99.90;;;;;;4997310;28;20065;-90
2024/01/24 01:41:30;;;;;;;8.15;2.08;;;11.00;99.90;;;;;;5013567;28;20041;-90
2024/01/24 01:43:56;;;;;;;12.18;2.50;;;11.00;99.90;;;;;;5015073;28;20037;-91
2024/01/24 01:46:22;;;;;;;10.45;2.13;;;11.10;99.90;;;;;;4988270;28;20112;-90
2024/01/24 01:48:49;;;;;;;10.15;2.72;;;11.10;99.90;;;;;;4997612;28;20041;-90
2024/01/24 01:51:19;;;;;;;15.98;2.40;;;11.10;99.90;;;;;;5034856;28;20068;-91
2024/01/24 01:53:48;;;;;;;10.48;2.38;;;11.20;99.90;;;;;;5006268;28;20040;-90
2024/01/24 01:56:18;;;;;;;7.43;2.10;;;11.20;99.90;;;;;;5002383;28;20037;-89
2024/01/24 01:58:45;;;;;;;11.75;2.20;;;11.40;99.90;;;;;;5017511;28;20091;-90
2024/01/24 02:01:12;;;;;;;12.88;2.25;;;11.40;99.90;;;;;;5023614;28;20472;-90
2024/01/24 02:03:40;;;;;;;8.90;2.15;;;11.60;99.90;;;;;;5004994;28;20093;-91
2024/01/24 02:06:07;;;;;;;11.63;2.33;;;11.20;99.90;;;;;;5009047;28;20034;-89
2024/01/24 02:08:34;;;;;;;10.75;1.90;;;11.40;99.90;;;;;;5000943;28;20037;-88
2024/01/24 02:10:59;;;;;;;10.50;2.42;;;11.40;99.90;;;;;;4994296;28;20519;-90
2024/01/24 02:13:31;;;;;;;12.45;2.28;;;11.40;99.90;;;;;;5001132;28;20041;-90
2024/01/24 02:16:04;;;;;;;12.63;2.30;;;11.40;99.90;;;;;;5001999;28;20037;-90
2024/01/24 02:18:30;;;;;;;11.20;2.13;;;11.40;99.90;;;;;;5017215;28;20038;-91
2024/01/24 02:20:56;;;;;;;9.80;2.15;;;11.40;99.90;;;;;;4996921;28;20408;-90
2024/01/24 02:23:25;;;;;;;9.10;2.05;;;11.30;99.90;;;;;;4995244;28;20057;-90
2024/01/24 02:25:51;;;;;;;14.20;2.33;;;11.40;99.90;;;;;;5013550;28;20042;-90
2024/01/24 02:28:18;;;;;;;10.60;2.00;;;11.40;99.90;;;;;;5005034;28;20048;-90
2024/01/24 02:30:49;;;;;;;9.95;2.28;;;11.40;99.90;;;;;;5008809;28;20527;-90
2024/01/24 02:33:14;;;;;;;9.80;2.08;;;11.30;99.90;;;;;;5009383;28;20037;-90
2024/01/24 02:35:40;;;;;;;11.68;2.10;;;11.30;99.90;;;;;;5003365;28;20044;-91
2024/01/24 02:38:06;;;;;;;9.07;2.20;;;11.30;99.90;;;;;;5011272;28;20038;-91
2024/01/24 02:40:31;;;;;;;7.95;1.80;;;11.40;99.90;;;;;;4992947;28;20048;-90
2024/01/24 02:42:57;;;;;;;9.52;1.65;;;11.30;99.90;;;;;;4993425;28;20050;-90
2024/01/24 02:45:23;;;;;;;10.52;1.80;;;11.40;99.90;;;;;;5026140;28;20072;-88
2024/01/24 02:47:49;;;;;;;11.93;2.28;;;11.30;99.90;;;;;;5001099;28;20037;-89
2024/01/24 02:50:19;;;;;;;10.68;2.17;;;11.40;99.90;;;;;;5021753;28;20044;-90
2024/01/24 02:52:44;;;;;;;13.00;2.30;;;11.30;99.90;;;;;;5005821;28;20110;-90
2024/01/24 02:55:16;;;;;;;12.00;2.47;;;11.40;99.90;;;;;;5009559;28;20040;-90
2024/01/24 02:57:43;;;;;;;13.45;2.35;;;11.30;99.90;;;;;;4996985;28;20049;-89
2024/01/24 03:00:09;;;;;;;13.55;2.40;;;11.30;99.90;;;;;;5029197;28;20055;-89
2024/01/24 03:02:41;;;;;;;13.75;2.35;;;11.30;99.90;;;;;;5022761;28;20122;-91
2024/01/24 03:05:09;;;;;;;14.38;3.03;;;11.30;99.90;;;;;;5033743;28;20041;-90
2024/01/24 03:07:36;;;;;;;12.85;2.15;;;11.30;99.90;;;;;;5009274;28;20545;-90
2024/01/24 03:10:02;;;;;;;11.85;2.50;;;11.30;99.90;;;;;;5006764;28;20041;-91
2024/01/24 03:12:28;;;;;;;13.85;2.55;;;11.30;99.90;;;;;;4996114;28;20041;-91
2024/01/24 03:14:54;;;;;;;13.30;2.65;;;11.30;99.90;;;;;;5010965;28;20435;-90
2024/01/24 03:17:19;;;;;;;16.13;3.03;;;11.20;99.90;;;;;;5024290;28;20037;-90
2024/01/24 03:19:45;;;;;;;13.25;2.85;;;11.20;99.90;;;;;;5028888;28;20044;-90
2024/01/24 03:22:11;;;;;;;14.27;2.75;;;10.90;99.90;;;;;;5001851;28;20034;-90
2024/01/24 03:24:37;;;;;;;12.60;2.72;;;11.10;99.90;;;;;;5000700;28;20038;-90
2024/01/24 03:27:03;;;;;;;24.83;3.53;;;11.00;99.90;;;;;;4994116;28;20088;-90
2024/01/24 03:29:29;;;;;;;11.90;2.78;;;11.00;99.90;;;;;;4999531;28;20417;-91
2024/01/24 03:31:54;;;;;;;16.42;2.75;;;11.50;99.90;;;;;;5019769;28;20071;-91
2024/01/24 03:34:20;;;;;;;20.55;3.55;;;10.90;99.90;;;;;;5012145;28;20041;-90
2024/01/24 03:36:46;;;;;;;14.60;3.08;;;10.90;99.90;;;;;;5006756;28;20033;-90
2024/01/24 03:39:12;;;;;;;19.02;3.13;;;10.90;99.90;;;;;;5008600;28;20675;-90
2024/01/24 03:41:40;;;;;;;19.02;3.83;;;11.00;99.90;;;;;;5022773;28;20041;-91
2024/01/24 03:44:05;;;;;;;16.13;3.47;;;10.90;99.90;;;;;;4992458;28;20049;-91
2024/01/24 03:46:31;;;;;;;16.38;3.05;;;11.00;99.90;;;;;;5008650;28;20060;-91
2024/01/24 03:48:57;;;;;;;14.50;2.85;;;11.00;99.90;;;;;;5009514;28;20038;-90
2024/01/24 03:51:23;;;;;;;15.73;2.95;;;11.00;99.90;;;;;;4991545;28;20088;-91
2024/01/24 03:53:49;;;;;;;15.98;3.10;;;10.90;99.90;;;;;;4996807;28;20038;-90
2024/01/24 03:56:15;;;;;;;15.13;3.28;;;10.90;99.90;;;;;;5005432;28;20038;-91
2024/01/24 03:58:41;;;;;;;17.13;3.35;;;10.80;99.90;;;;;;5005772;28;20041;-91
2024/01/24 04:01:07;;;;;;;18.65;3.92;;;10.80;99.90;;;;;;5022835;28;20037;-90
2024/01/24 04:03:32;;;;;;;17.70;3.55;;;10.80;99.90;;;;;;5008991;28;20496;-90
2024/01/24 04:05:58;;;;;;;21.85;3.72;;;10.80;99.90;;;;;;4996277;28;20518;-91
2024/01/24 04:08:24;;;;;;;24.67;3.45;;;11.40;99.90;;;;;;5000914;28;20047;-90
2024/01/24 04:10:50;;;;;;;20.20;3.30;;;10.90;99.90;;;;;;4997425;28;20481;-92
2024/01/24 04:13:15;;;;;;;17.35;3.15;;;10.90;99.90;;;;;;5001530;28;20061;-90
2024/01/24 04:15:47;;;;;;;15.65;3.53;;;10.80;99.90;;;;;;5037776;28;20028;-91
2024/01/24 04:18:13;;;;;;;16.17;2.92;;;11.00;99.90;;;;;;5009448;28;20045;-91
2024/01/24 04:20:39;;;;;;;19.33;3.15;;;10.80;99.90;;;;;;5002137;28;20033;-90
2024/01/24 04:23:04;;;;;;;24.40;3.90;;;10.60;99.90;;;;;;5014911;28;20073;-90
2024/01/24 04:25:30;;;;;;;23.60;4.90;;;10.50;99.90;;;;;;5029849;28;20038;-90
2024/01/24 04:27:57;;;;;;;25.45;4.15;;;10.30;99.90;;;;;;5022359;28;20038;-91
2024/01/24 04:30:22;;;;;;;18.05;3.65;;;10.30;99.90;;;;;;5023696;28;20050;-90
2024/01/24 04:32:48;;;;;;;21.08;3.90;;;10.40;99.90;;;;;;5007655;28;20033;-90
2024/01/24 04:35:14;;;;;;;21.55;3.80;;;10.30;99.90;;;;;;5017827;28;20489;-90
2024/01/24 04:37:41;;;;;;;27.25;4.35;;;10.10;99.90;;;;;;5006115;28;20042;-90
2024/01/24 04:40:11;;;;;;;20.80;4.70;;;10.00;99.90;;;;;;5015450;28;20037;-89
2024/01/24 04:42:38;;;;;;;31.77;4.72;;;9.90;99.90;;;;;;5012157;28;20038;-91
2024/01/24 04:45:04;;;;;;;27.83;5.45;;;10.20;99.90;;;;;;4995850;28;20041;-90
2024/01/24 04:47:30;;;;;;;27.60;5.13;;;10.10;99.90;;;;;;4998552;28;20045;-92
2024/01/24 04:49:56;;;;;;;23.25;4.15;;;10.20;99.90;;;;;;5003681;28;20050;-91
2024/01/24 04:52:22;;;;;;;25.95;4.57;;;10.20;99.90;;;;;;5019158;28;20034;-90
2024/01/24 04:54:47;;;;;;;33.28;5.05;;;10.20;99.90;;;;;;5032356;28;20037;-90
2024/01/24 04:57:14;;;;;;;21.88;5.13;;;10.20;99.90;;;;;;5024027;28;20052;-90
2024/01/24 04:59:41;;;;;;;31.70;4.63;;;10.30;99.90;;;;;;5009528;28;20093;-90
2024/01/24 05:02:10;;;;;;;26.27;4.68;;;10.40;99.90;;;;;;5025896;28;20021;-91
2024/01/24 05:04:36;;;;;;;25.00;4.88;;;10.40;99.90;;;;;;5016892;28;20036;-90
2024/01/24 05:07:01;;;;;;;26.92;4.93;;;10.40;99.90;;;;;;5019692;28;20041;-90
2024/01/24 05:09:27;;;;;;;29.60;4.20;;;10.40;99.90;;;;;;5041580;28;20072;-90
2024/01/24 05:11:53;;;;;;;25.30;4.93;;;10.40;99.90;;;;;;5016395;28;20074;-89
2024/01/24 05:14:19;;;;;;;25.35;4.72;;;10.40;99.90;;;;;;5010554;28;20037;-91
2024/01/24 05:16:44;;;;;;;25.10;4.70;;;10.60;99.90;;;;;;5033204;28;20033;-89
2024/01/24 05:19:11;;;;;;;24.83;4.90;;;10.50;99.90;;;;;;5034995;28;20060;-88
2024/01/24 05:21:43;;;;;;;23.92;4.57;;;10.40;99.90;;;;;;5009851;28;20037;-91
2024/01/24 05:24:10;;;;;;;28.30;5.68;;;10.40;99.90;;;;;;5028371;28;20098;-91
2024/01/24 05:26:36;;;;;;;27.92;5.68;;;10.60;99.90;;;;;;5020412;28;20044;-90
2024/01/24 05:29:06;;;;;;;25.58;4.90;;;10.40;99.90;;;;;;5001104;28;20049;-91
2024/01/24 05:31:33;;;;;;;25.75;5.53;;;10.50;99.90;;;;;;5003269;28;20048;-91
2024/01/24 05:34:01;;;;;;;29.55;5.95;;;10.50;99.90;;;;;;5003901;28;20033;-90
2024/01/24 05:36:26;;;;;;;29.70;5.72;;;10.10;99.90;;;;;;5003201;28;20029;-89
2024/01/24 05:38:52;;;;;;;26.50;4.97;;;10.60;99.90;;;;;;4992990;28;20523;-91
2024/01/24 05:41:18;;;;;;;26.10;5.32;;;10.60;99.90;;;;;;5015242;28;20100;-91
2024/01/24 05:43:44;;;;;;;25.33;4.90;;;10.50;99.90;;;;;;4994743;28;20037;-89
2024/01/24 05:46:09;;;;;;;30.55;5.63;;;10.50;99.90;;;;;;4993499;28;20115;-90
2024/01/24 05:48:35;;;;;;;28.80;5.20;;;10.50;99.90;;;;;;5015656;28;20095;-90
2024/01/24 05:51:01;;;;;;;26.77;5.50;;;10.90;99.90;;;;;;4994814;28;20135;-89
2024/01/24 05:53:27;;;;;;;29.73;5.63;;;10.30;99.90;;;;;;5000820;28;20168;-90
2024/01/24 05:55:53;;;;;;;27.92;5.15;;;10.30;99.90;;;;;;5001353;28;20517;-90
2024/01/24 05:58:19;;;;;;;33.10;6.40;;;10.30;99.90;;;;;;5000977;28;20409;-90
2024/01/24 06:00:45;;;;;;;33.03;5.07;;;10.30;99.90;;;;;;4999258;28;20042;-92
2024/01/24 06:03:11;;;;;;;34.35;6.28;;;10.40;99.90;;;;;;4995974;28;20041;-90
2024/01/24 06:05:37;;;;;;;32.55;6.00;;;10.30;99.90;;;;;;5017417;28;20073;-90
2024/01/24 06:08:05;;;;;;;37.78;6.72;;;10.30;99.90;;;;;;4994715;28;20126;-90
2024/01/24 06:10:31;;;;;;;31.17;5.95;;;10.20;99.90;;;;;;4997053;28;20038;-89
2024/01/24 06:12:57;;;;;;;37.80;5.70;;;10.20;99.90;;;;;;5009009;28;20034;-89
2024/01/24 06:15:23;;;;;;;32.03;5.60;;;10.50;99.90;;;;;;5016962;28;20033;-90
2024/01/24 06:17:49;;;;;;;30.15;5.82;;;10.20;99.90;;;;;;5024249;28;20033;-91
2024/01/24 06:20:15;;;;;;;32.42;6.03;;;10.20;99.90;;;;;;5010388;28;20045;-91
2024/01/24 06:22:41;;;;;;;31.70;5.93;;;10.20;99.90;;;;;;5015514;28;20125;-91
2024/01/24 06:25:07;;;;;;;26.48;5.72;;;10.20;99.90;;;;;;4998419;28;20069;-90
2024/01/24 06:27:35;;;;;;;27.10;6.20;;;10.10;99.90;;;;;;5010391;28;20040;-90
2024/01/24 06:30:01;;;;;;;31.00;5.82;;;10.20;99.90;;;;;;5000208;28;20033;-89
2024/01/24 06:32:26;;;;;;;28.05;6.15;;;10.20;99.90;;;;;;5001863;28;20587;-88
2024/01/24 06:34:55;;;;;;;37.20;6.47;;;10.10;99.90;;;;;;5012768;28;20041;-91
2024/01/24 06:37:21;;;;;;;32.80;6.75;;;10.10;99.90;;;;;;5002135;28;20180;-90
2024/01/24 06:39:47;;;;;;;29.05;5.50;;;10.30;99.90;;;;;;5000674;28;20132;-91
2024/01/24 06:42:12;;;;;;;33.63;6.10;;;10.00;99.90;;;;;;5016344;28;20041;-89
2024/01/24 06:44:40;;;;;;;27.65;5.75;;;10.00;99.90;;;;;;5023763;28;20046;-90
2024/01/24 06:47:06;;;;;;;35.67;6.20;;;10.00;99.90;;;;;;4994835;28;20037;-88
2024/01/24 06:49:32;;;;;;;28.52;6.03;;;10.30;99.90;;;;;;4999101;28;20046;-89
2024/01/24 06:51:58;;;;;;;28.13;5.90;;;10.00;99.90;;;;;;5000185;28;20047;-91
2024/01/24 06:54:23;;;;;;;33.15;6.07;;;9.90;99.90;;;;;;4991601;28;20034;-90
2024/01/24 06:56:49;;;;;;;29.33;5.20;;;9.80;99.90;;;;;;5015845;28;20037;-89
2024/01/24 06:59:15;;;;;;;24.42;5.35;;;9.80;99.90;;;;;;5006507;28;20049;-90
2024/01/24 07:01:40;;;;;;;31.30;6.13;;;9.80;99.90;;;;;;5006107;28;20238;-89
2024/01/24 07:04:06;;;;;;;30.85;6.35;;;9.70;99.90;;;;;;5029822;28;20121;-91
2024/01/24 07:06:32;;;;;;;32.90;5.70;;;9.80;99.90;;;;;;5007011;28;20413;-89
2024/01/24 07:08:58;;;;;;;26.70;5.65;;;9.80;99.90;;;;;;4998226;28;20045;-90
2024/01/24 07:11:23;;;;;;;27.80;5.82;;;9.80;99.90;;;;;;4998208;28;20030;-90
2024/01/24 07:13:49;;;;;;;25.45;5.68;;;9.80;99.90;;;;;;4998735;28;20336;-90
2024/01/24 07:16:15;;;;;;;28.05;5.18;;;9.70;99.90;;;;;;4990074;28;20044;-90
2024/01/24 07:18:40;;;;;;;29.20;5.32;;;9.80;99.90;;;;;;4998060;28;20034;-89
2024/01/24 07:21:07;;;;;;;33.95;5.60;;;9.80;99.90;;;;;;5031654;28;20469;-90
2024/01/24 07:23:33;;;;;;;25.63;5.32;;;9.80;99.90;;;;;;4991405;28;20037;-90
2024/01/24 07:25:58;;;;;;;27.08;6.38;;;10.10;99.90;;;;;;5013729;28;20120;-88
2024/01/24 07:28:24;;;;;;;27.63;5.60;;;9.80;99.90;;;;;;4990262;28;20049;-90
2024/01/24 07:30:50;;;;;;;32.53;5.40;;;9.80;99.90;;;;;;5012278;28;20599;-91
2024/01/24 07:33:18;;;;;;;30.90;5.03;;;9.80;99.90;;;;;;5013952;28;20288;-89
2024/01/24 07:35:43;;;;;;;35.38;6.93;;;9.80;99.90;;;;;;5013481;28;20386;-90
2024/01/24 07:38:09;;;;;;;27.70;5.07;;;9.80;99.90;;;;;;4989359;28;20041;-89
2024/01/24 07:40:37;;;;;;;25.33;5.63;;;10.30;99.90;;;;;;5009437;28;20038;-89
2024/01/24 07:43:02;;;;;;;27.85;5.55;;;9.80;99.90;;;;;;5010086;28;20077;-90
2024/01/24 07:45:28;;;;;;;34.60;5.90;;;9.70;99.90;;;;;;5013205;28;20045;-87
2024/01/24 07:47:54;;;;;;;33.20;6.10;;;10.20;99.90;;;;;;4997651;28;20037;-89
2024/01/24 07:50:20;;;;;;;31.10;6.45;;;10.20;99.90;;;;;;5014603;28;20068;-89
2024/01/24 07:52:46;;;;;;;27.23;5.22;;;9.80;99.90;;;;;;4994142;28;20494;-88
2024/01/24 07:55:13;;;;;;;36.35;7.43;;;9.90;99.90;;;;;;5014121;28;20068;-90
2024/01/24 07:57:39;;;;;;;38.22;6.28;;;9.80;99.90;;;;;;4998195;28;20041;-91
2024/01/24 08:00:06;;;;;;;29.92;6.07;;;9.90;99.90;;;;;;5012535;28;20045;-90
2024/01/24 08:02:32;;;;;;;28.60;6.57;;;9.70;99.90;;;;;;4990267;28;20046;-89
2024/01/24 08:04:58;;;;;;;35.85;6.45;;;9.70;99.90;;;;;;5001417;28;20048;-90
2024/01/24 08:07:24;;;;;;;31.70;5.75;;;9.90;99.90;;;;;;5014003;28;20042;-87
2024/01/24 08:09:50;;;;;;;30.92;6.43;;;9.80;99.90;;;;;;5008828;28;20042;-90
2024/01/24 08:12:16;;;;;;;30.25;5.47;;;9.80;99.90;;;;;;5006223;28;20052;-91
2024/01/24 08:14:42;;;;;;;32.88;5.75;;;9.70;99.90;;;;;;5005536;28;20034;-89
2024/01/24 08:17:08;;;;;;;28.63;5.32;;;10.10;99.90;;;;;;4997591;28;20091;-89
2024/01/24 08:19:34;;;;;;;30.88;5.68;;;9.70;99.90;;;;;;4985232;28;20034;-89
2024/01/24 08:22:00;;;;;;;32.42;5.75;;;9.60;99.90;;;;;;5011560;28;20041;-87
2024/01/24 08:24:26;;;;;;;29.58;6.40;;;9.90;99.90;;;;;;5000844;28;20088;-88
2024/01/24 08:26:52;;;;;;;26.70;5.68;;;10.00;99.90;;;;;;5017518;28;20072;-88
2024/01/24 08:29:19;;;;;;;29.48;7.07;;;9.70;99.90;;;;;;5016812;28;20069;-89
2024/01/24 08:31:45;;;;;;;28.20;5.82;;;9.70;99.90;;;;;;5015559;28;20056;-88
2024/01/24 08:34:11;;;;;;;23.35;5.20;;;9.80;99.90;;;;;;5016405;28;20477;-89
2024/01/24 08:36:37;;;;;;;25.45;5.43;;;9.70;99.90;;;;;;4993069;28;20056;-89
2024/01/24 08:39:06;;;;;;;23.80;5.22;;;9.70;99.90;;;;;;4985118;28;20109;-89
2024/01/24 08:41:32;;;;;;;31.85;5.47;;;9.70;99.90;;;;;;5000453;28;20045;-88
2024/01/24 08:43:58;;;;;;;33.17;5.35;;;9.80;99.90;;;;;;4994355;28;20037;-87
2024/01/24 08:46:24;;;;;;;29.50;6.43;;;9.70;99.90;;;;;;4996396;28;20486;-88
2024/01/24 08:48:50;;;;;;;32.30;6.80;;;9.70;99.90;;;;;;5000006;28;20037;-89
2024/01/24 08:51:16;;;;;;;34.42;6.35;;;9.70;99.90;;;;;;4992249;28;20405;-87
2024/01/24 08:53:42;;;;;;;22.10;5.43;;;9.70;99.90;;;;;;4998434;28;20029;-89
2024/01/24 08:56:09;;;;;;;39.47;6.55;;;9.70;99.90;;;;;;4991096;28;20092;-88
2024/01/24 08:58:36;;;;;;;28.10;5.15;;;9.90;99.90;;;;;;4995863;28;20379;-89
2024/01/24 09:01:02;;;;;;;31.02;6.15;;;9.90;99.90;;;;;;4987071;28;20048;-88
2024/01/24 09:03:28;;;;;;;30.52;6.38;;;9.60;99.90;;;;;;5032882;28;20049;-88
2024/01/24 09:05:54;;;;;;;33.80;6.20;;;10.20;99.90;;;;;;4999837;28;20413;-90
2024/01/24 09:08:19;;;;;;;31.40;5.32;;;9.60;99.90;;;;;;4994657;28;20041;-88
2024/01/24 09:10:45;;;;;;;25.40;5.43;;;9.80;99.90;;;;;;4997893;28;20037;-89
2024/01/24 09:13:12;;;;;;;31.33;6.38;;;9.60;99.90;;;;;;4989641;28;20548;-89
2024/01/24 09:15:38;;;;;;;26.67;5.78;;;9.60;99.90;;;;;;4999586;28;20464;-88
2024/01/24 09:18:04;;;;;;;25.48;5.70;;;9.90;99.90;;;;;;5016545;28;20068;-89
2024/01/24 09:20:30;;;;;;;33.83;6.95;;;9.60;99.90;;;;;;5004331;28;20041;-88
2024/01/24 09:22:55;;;;;;;30.98;5.88;;;9.10;99.90;;;;;;5022007;28;20041;-88
2024/01/24 09:25:22;;;;;;;28.90;5.40;;;10.10;99.90;;;;;;4998975;28;20041;-88
2024/01/24 09:27:47;;;;;;;32.83;5.70;;;10.10;99.90;;;;;;4999110;28;20044;-89
2024/01/24 09:30:13;;;;;;;30.40;6.28;;;9.70;99.90;;;;;;4991454;28;20125;-89
2024/01/24 09:32:39;;;;;;;30.10;6.00;;;9.50;99.90;;;;;;4995709;28;20045;-89
2024/01/24 09:35:05;;;;;;;34.95;6.50;;;9.70;99.90;;;;;;4987752;28;20099;-89
2024/01/24 09:37:31;;;;;;;25.70;5.13;;;9.80;99.90;;;;;;4989391;28;20183;-89
2024/01/24 09:39:56;;;;;;;31.92;5.78;;;9.90;99.90;;;;;;5002519;28;20041;-87
2024/01/24 09:42:25;;;;;;;25.30;5.55;;;9.80;99.90;;;;;;5026154;28;20413;-89
2024/01/24 09:44:52;;;;;;;33.15;6.85;;;9.90;99.90;;;;;;5016783;28;20091;-89
2024/01/24 09:47:22;;;;;;;37.20;6.93;;;9.80;99.90;;;;;;5000816;28;20425;-88
2024/01/24 09:49:48;;;;;;;26.80;5.53;;;9.90;99.90;;;;;;5011002;28;20044;-87
2024/01/24 09:52:16;;;;;;;31.60;6.53;;;9.90;99.90;;;;;;5010251;28;20406;-88
2024/01/24 09:54:43;;;;;;;34.33;5.97;;;9.90;99.90;;;;;;5007395;28;20068;-88
2024/01/24 09:57:10;;;;;;;32.00;4.88;;;9.90;99.90;;;;;;5033480;28;20421;-90
2024/01/24 09:59:36;;;;;;;32.95;6.00;;;10.00;99.90;;;;;;5005607;28;20036;-87
2024/01/24 10:02:06;;;;;;;31.10;5.95;;;10.00;99.90;;;;;;4992727;28;20498;-89
2024/01/24 10:04:37;;;;;;;28.88;5.88;;;10.00;99.90;;;;;;5001940;28;20088;-89
2024/01/24 10:07:08;;;;;;;33.42;6.40;;;10.00;99.90;;;;;;5011070;28;20627;-89
2024/01/24 10:09:34;;;;;;;24.70;5.55;;;10.30;99.90;;;;;;4992479;28;20055;-89
2024/01/24 10:12:00;;;;;;;29.98;5.22;;;10.00;99.90;;;;;;5009091;28;20040;-88
2024/01/24 10:14:26;;;;;;;28.40;5.55;;;10.00;99.90;;;;;;5018030;28;20073;-89
2024/01/24 10:16:51;;;;;;;24.10;4.70;;;10.10;99.90;;;;;;5012144;28;20079;-88
2024/01/24 10:19:22;;;;;;;29.70;5.82;;;10.00;99.90;;;;;;5034875;28;20131;-89
2024/01/24 10:21:48;;;;;;;25.63;5.22;;;10.10;99.90;;;;;;4999663;28;20069;-89
2024/01/24 10:24:14;;;;;;;30.42;5.55;;;10.10;99.90;;;;;;5007161;28;20037;-88
2024/01/24 10:26:40;;;;;;;28.33;5.90;;;10.00;99.90;;;;;;5020384;28;20037;-89
2024/01/24 10:29:07;;;;;;;23.80;5.20;;;10.20;99.90;;;;;;5025357;28;20121;-89
2024/01/24 10:31:33;;;;;;;26.73;5.03;;;10.30;99.90;;;;;;5019026;28;20120;-87
2024/01/24 10:33:58;;;;;;;30.60;5.53;;;10.30;99.90;;;;;;5011672;28;20037;-87
2024/01/24 10:36:27;;;;;;;26.38;4.97;;;10.30;99.90;;;;;;5002132;28;20038;-89
2024/01/24 10:38:59;;;;;;;27.77;5.20;;;10.40;99.90;;;;;;4993941;28;20030;-89
2024/01/24 10:41:30;;;;;;;29.90;5.97;;;10.30;99.90;;;;;;4999267;28;20081;-90
2024/01/24 10:44:01;;;;;;;31.08;5.90;;;10.50;99.90;;;;;;4990583;28;20081;-89
2024/01/24 10:46:27;;;;;;;29.52;5.70;;;10.50;99.90;;;;;;5026733;28;20116;-89
2024/01/24 10:48:54;;;;;;;27.25;5.25;;;10.50;99.90;;;;;;5008526;28;20087;-90
2024/01/24 10:51:20;;;;;;;28.70;5.13;;;10.50;99.90;;;;;;5003145;28;20048;-89
2024/01/24 10:53:48;;;;;;;21.33;5.05;;;10.90;99.90;;;;;;4989437;28;20033;-90
2024/01/24 10:56:15;;;;;;;26.77;5.68;;;10.40;99.90;;;;;;5014426;28;20045;-89
2024/01/24 10:58:42;;;;;;;32.38;5.03;;;10.40;99.90;;;;;;4995918;28;20033;-88
2024/01/24 11:01:08;;;;;;;25.17;5.82;;;10.50;99.90;;;;;;5001300;28;20106;-88
2024/01/24 11:03:34;;;;;;;34.17;6.20;;;10.40;99.90;;;;;;5031629;28;20072;-89
2024/01/24 11:06:03;;;;;;;24.20;5.55;;;10.60;99.90;;;;;;5014057;28;20173;-91
2024/01/24 11:08:48;;;;;;;26.88;5.10;;;10.50;99.90;;;;;;4993032;28;20037;-89
2024/01/24 11:11:17;;;;;;;24.00;4.75;;;10.60;99.90;;;;;;4999607;28;20037;-87
2024/01/24 11:13:44;;;;;;;31.60;5.43;;;10.60;99.90;;;;;;4999369;28;20493;-89
2024/01/24 11:16:41;;;;;;;26.60;4.95;;;10.60;99.90;;;;;;5003523;28;20041;-87
2024/01/24 11:19:23;;;;;;;30.70;5.60;;;10.50;99.90;;;;;;4990291;28;20045;-88
2024/01/24 11:21:52;;;;;;;30.55;5.70;;;10.50;99.90;;;;;;5005113;28;20083;-89
2024/01/24 11:24:40;;;;;;;24.13;4.72;;;10.50;99.90;;;;;;5016501;28;20042;-89
2024/01/24 11:27:33;;;;;;;30.60;5.80;;;10.40;99.90;;;;;;5011635;28;20049;-88
2024/01/24 11:30:11;;;;;;;26.23;4.95;;;10.40;99.90;;;;;;5010029;28;20041;-88
2024/01/24 11:32:54;;;;;;;23.00;5.50;;;10.40;99.90;;;;;;4992456;28;20038;-89
2024/01/24 11:35:33;;;;;;;27.63;5.28;;;10.80;99.90;;;;;;4981401;28;20041;-88
2024/01/24 11:38:08;;;;;;;32.35;6.10;;;10.30;99.90;;;;;;5014881;28;20120;-88
2024/01/24 11:40:40;;;;;;;32.05;5.88;;;10.30;99.90;;;;;;4997917;28;20493;-88
2024/01/24 11:43:05;;;;;;;25.67;5.43;;;10.40;99.90;;;;;;5008382;28;20501;-89
2024/01/24 11:45:33;;;;;;;30.35;6.18;;;10.50;99.90;;;;;;5015741;28;20081;-88
2024/01/24 11:47:59;;;;;;;32.50;5.80;;;10.40;99.90;;;;;;4993542;28;20121;-88
2024/01/24 11:50:25;;;;;;;25.98;5.65;;;10.30;99.90;;;;;;5000991;28;20141;-88
2024/01/24 11:52:58;;;;;;;31.15;5.57;;;10.70;99.90;;;;;;5001642;28;20059;-88
2024/01/24 11:55:24;;;;;;;34.42;5.43;;;10.30;99.90;;;;;;4999527;28;20033;-88
2024/01/24 11:57:49;;;;;;;28.23;5.22;;;10.40;99.90;;;;;;5009849;28;20460;-88
2024/01/24 12:00:16;;;;;;;21.58;5.00;;;10.60;99.90;;;;;;4993444;28;20048;-88
2024/01/24 12:02:42;;;;;;;24.08;5.10;;;10.30;99.90;;;;;;5017810;28;20500;-88
2024/01/24 12:05:08;;;;;;;23.42;4.68;;;10.80;99.90;;;;;;5001709;28;20125;-86
2024/01/24 12:07:34;;;;;;;23.58;5.15;;;10.50;99.90;;;;;;5003138;28;20562;-87
2024/01/24 12:10:00;;;;;;;27.73;4.88;;;10.80;99.90;;;;;;4993055;28;20038;-87
2024/01/24 12:12:27;;;;;;;28.38;5.63;;;10.50;99.90;;;;;;4993124;28;20091;-86
2024/01/24 12:14:55;;;;;;;33.08;6.30;;;10.40;99.90;;;;;;4993964;28;20038;-88
2024/01/24 12:17:21;;;;;;;38.25;5.68;;;10.50;99.90;;;;;;4993046;28;20046;-88
2024/01/24 12:19:46;;;;;;;29.15;5.13;;;10.80;99.90;;;;;;5016442;28;20045;-89
2024/01/24 12:22:12;;;;;;;21.65;4.35;;;10.80;99.90;;;;;;5034994;28;20034;-87
2024/01/24 12:24:42;;;;;;;27.40;5.97;;;10.50;99.90;;;;;;5010563;28;20029;-86
2024/01/24 12:27:08;;;;;;;17.67;4.30;;;10.50;99.90;;;;;;4988199;28;20370;-88
2024/01/24 12:29:34;;;;;;;22.35;4.55;;;10.60;99.90;;;;;;5030844;28;20374;-87
2024/01/24 12:32:02;;;;;;;28.50;5.03;;;10.80;99.90;;;;;;5001151;28;20401;-86
2024/01/24 12:34:29;;;;;;;24.92;4.90;;;11.10;99.90;;;;;;5001093;28;20059;-88
2024/01/24 12:36:56;;;;;;;30.65;5.60;;;11.10;99.90;;;;;;5016140;28;20038;-87